Latest Weather Observations for Tatura

IDV60801

Issued at 12:32 pm EST Tuesday 25 July 2017 (issued every 30 minutes, with the page automatically refreshed every 10 minutes)

About weather observations | Map of weather stations | Latest weather observations for VIC | Other Formats
Station Details ID: 081049 Name: TATURA INST SUSTAINABLE AG Lat: -36.44 Lon: 145.27 Height: 114.0 m
Data from the previous 72 hours. | See also: Recent months at Tatura
Date/Time
EST
Temp
°C
App
Temp
°C
Dew
Point
°C
Rel
Hum
%
Delta-T
°C
Wind Press
QNH
hPa
Press
MSL
hPa
Rain since
9am
mm
Dir  Spd
km/h
Gust
km/h
Spd
kts
Gust
kts
25/12:30pm 14.2 10.9 7.9 66 3.1 NNE 15 24 8 13 - - 0.0
25/12:00pm 13.1 9.2 6.9 66 3.0 NNE 17 22 9 12 - - 0.0
25/11:30am 12.4 8.6 7.5 72 2.4 NE 17 24 9 13 - - 0.0
25/11:00am 10.8 6.4 6.6 75 2.0 NNE 19 26 10 14 - - 0.0
25/10:30am 9.6 5.5 6.1 79 1.6 NNE 17 24 9 13 - - 0.0
25/10:00am 8.9 5.2 6.5 85 1.1 NE 15 22 8 12 - - 0.0
25/09:30am 7.8 3.7 6.3 90 0.7 NE 17 20 9 11 - - 0.0
25/09:00am 6.9 2.7 5.8 93 0.5 NE 17 22 9 12 - - 0.6
25/08:30am 6.3 2.1 5.9 97 0.2 ENE 17 22 9 12 - - 0.6
25/08:00am 5.5 2.0 5.5 100 0.0 ENE 13 19 7 10 - - 0.6
25/07:30am 4.8 1.2 4.8 100 0.0 ENE 13 20 7 11 - - 0.6
25/07:00am 4.8 1.2 4.8 100 0.0 ENE 13 17 7 9 - - 0.6
25/06:30am 4.9 2.0 4.9 100 0.0 E 9 13 5 7 - - 0.4
25/06:00am 5.2 2.8 5.2 100 0.0 ENE 7 9 4 5 - - 0.4
25/05:30am 5.7 3.0 5.7 100 0.0 NE 9 11 5 6 - - 0.4
25/05:00am 6.1 3.5 6.1 100 0.0 NNE 9 13 5 7 - - 0.4
25/04:30am 6.4 3.9 6.4 100 0.0 NNE 9 13 5 7 - - 0.4
25/04:00am 6.4 3.5 6.4 100 0.0 NE 11 15 6 8 - - 0.4
25/03:30am 6.6 3.7 6.6 100 0.0 NE 11 15 6 8 - - 0.4
25/03:00am 6.8 4.0 6.8 100 0.0 NE 11 15 6 8 - - 0.4
25/02:30am 7.2 4.4 7.1 99 0.0 NE 11 15 6 8 - - 0.4
25/02:00am 7.6 5.0 7.6 100 0.0 ENE 11 15 6 8 - - 0.4
25/01:30am 8.0 6.2 7.9 99 0.0 ENE 7 9 4 5 - - 0.4
25/01:00am 8.0 7.1 7.7 98 0.1 NE 2 7 1 4 - - 0.0
25/12:30am 8.1 5.9 7.8 98 0.1 NE 9 13 5 7 - - 0.0
25/12:00am 8.3 6.5 8.0 98 0.1 ENE 7 11 4 6 - - 0.0
 
Date/Time
EST
Temp
°C
App
Temp
°C
Dew
Point
°C
Rel
Hum
%
Delta-T
°C
Wind Press
QNH
hPa
Press
MSL
hPa
Rain since
9am
mm
Dir  Spd
km/h
Gust
km/h
Spd
kts
Gust
kts
24/11:30pm 8.2 6.1 8.1 99 0.0 NE 9 13 5 7 - - 0.0
24/11:00pm 8.2 5.7 8.1 99 0.0 NE 11 15 6 8 - - 0.0
24/10:30pm 7.9 5.7 7.8 99 0.0 NE 9 13 5 7 - - 0.0
24/10:00pm 7.6 5.3 7.5 99 0.0 NE 9 11 5 6 - - 0.0
24/09:30pm 7.7 5.4 7.3 97 0.2 NNE 9 13 5 7 - - 0.0
24/09:00pm 8.4 6.2 8.0 97 0.2 NE 9 11 5 6 - - 0.0
24/08:30pm 8.7 6.6 8.1 96 0.3 NNE 9 15 5 8 - - 0.0
24/08:00pm 9.1 6.9 7.9 92 0.6 NNE 9 13 5 7 - - 0.0
24/07:30pm 10.3 8.8 9.1 92 0.6 NNE 7 9 4 5 - - 0.0
24/07:00pm 10.3 8.8 9.1 92 0.6 NNE 7 11 4 6 - - 0.0
24/06:30pm 10.4 10.1 8.8 90 0.8 CALM 0 0 0 0 - - 0.0
24/06:00pm 11.2 10.3 9.1 87 1.1 NNE 4 7 2 4 - - 0.0
24/05:30pm 11.8 11.6 9.0 83 1.4 CALM 0 0 0 0 - - 0.0
24/05:00pm 12.6 11.4 9.4 81 1.6 NW 6 9 3 5 - - 0.0
24/04:30pm 12.8 11.9 9.3 79 1.8 WNW 4 9 2 5 - - 0.0
24/04:00pm 13.2 12.5 8.7 74 2.3 NNW 2 7 1 4 - - 0.0
24/03:30pm 12.8 12.6 8.9 77 2.0 CALM 0 0 0 0 - - 0.0
24/03:00pm 13.4 11.6 9.3 76 2.1 WNW 9 13 5 7 - - 0.0
24/02:30pm 13.2 10.1 8.9 75 2.2 WNW 15 19 8 10 - - 0.0
24/02:00pm 12.4 10.3 9.6 83 1.4 NW 11 15 6 8 - - 0.0
24/01:30pm 9.8 9.0 9.8 100 0.0 W 4 13 2 7 - - 0.0
24/01:00pm 9.3 7.5 9.3 100 0.0 WSW 9 11 5 6 - - 0.0
24/12:30pm 8.3 7.9 8.3 100 0.0 CALM 0 0 0 0 - - 0.0
24/12:00pm 7.8 6.2 7.8 100 0.0 NW 6 11 3 6 - - 0.0
24/11:30am 7.7 6.4 7.7 100 0.0 NNW 4 11 2 6 - - 0.0
24/11:00am 6.3 5.1 6.3 100 0.0 N 2 9 1 5 - - 0.0
24/10:30am 5.7 3.0 5.7 100 0.0 N 9 13 5 7 - - 0.0
24/10:00am 5.2 3.7 5.2 100 0.0 N 2 11 1 6 - - 0.0
24/09:30am 4.6 1.7 4.6 100 0.0 N 9 13 5 7 - - 0.0
24/09:00am 4.1 1.1 4.1 100 0.0 N 9 13 5 7 - - 0.6
24/08:30am 3.9 1.2 3.9 100 0.0 N 7 9 4 5 - - 0.6
24/08:00am 3.7 1.6 3.7 100 0.0 N 4 7 2 4 - - 0.4
24/07:30am 3.9 1.2 3.9 100 0.0 N 7 9 4 5 - - 0.4
24/07:00am 4.6 2.1 4.6 100 0.0 N 7 9 4 5 - - 0.4
24/06:30am 4.8 1.9 4.8 100 0.0 N 9 11 5 6 - - 0.4
24/06:00am 4.9 3.8 4.9 100 0.0 CALM 0 0 0 0 - - 0.4
24/05:30am 5.3 4.2 5.3 100 0.0 CALM 0 0 0 0 - - 0.4
24/05:00am 5.5 4.5 5.5 100 0.0 CALM 0 2 0 1 - - 0.4
24/04:30am 5.6 3.5 5.6 100 0.0 WSW 6 7 3 4 - - 0.4
24/04:00am 5.9 3.6 5.9 100 0.0 W 7 11 4 6 - - 0.4
24/03:30am 6.3 4.1 6.3 100 0.0 W 7 11 4 6 - - 0.4
24/03:00am 6.4 3.5 6.4 100 0.0 WNW 11 13 6 7 - - 0.4
24/02:30am 6.7 3.8 6.7 100 0.0 WNW 11 15 6 8 - - 0.4
24/02:00am 6.9 4.1 6.9 100 0.0 WNW 11 13 6 7 - - 0.4
24/01:30am 7.2 4.5 7.2 100 0.0 NW 11 13 6 7 - - 0.4
24/01:00am 7.6 5.3 7.6 100 0.0 NW 9 9 5 5 - - 0.4
24/12:30am 7.8 6.2 7.8 100 0.0 WNW 6 11 3 6 - - 0.4
24/12:00am 6.8 4.7 6.8 100 0.0 WNW 7 11 4 6 - - 0.4
 
Date/Time
EST
Temp
°C
App
Temp
°C
Dew
Point
°C
Rel
Hum
%
Delta-T
°C
Wind Press
QNH
hPa
Press
MSL
hPa
Rain since
9am
mm
Dir  Spd
km/h
Gust
km/h
Spd
kts
Gust
kts
23/11:30pm 7.6 5.3 7.6 100 0.0 W 9 13 5 7 - - 0.4
23/11:00pm 7.8 5.2 7.8 100 0.0 WNW 11 13 6 7 - - 0.2
23/10:30pm 8.4 6.3 8.3 99 0.0 WNW 9 11 5 6 - - 0.2
23/10:00pm 9.2 7.3 9.1 99 0.0 WNW 9 13 5 7 - - 0.2
23/09:30pm 9.0 7.0 8.7 98 0.1 W 9 11 5 6 - - 0.2
23/09:00pm 9.6 8.4 9.5 99 0.1 WSW 6 9 3 5 - - 0.2
23/08:30pm 9.1 7.2 9.0 99 0.0 WSW 9 13 5 7 - - 0.2
23/08:00pm 9.1 6.7 8.6 97 0.2 WNW 11 15 6 8 - - 0.2
23/07:30pm 9.9 7.3 9.4 97 0.3 NW 13 15 7 8 - - 0.2
23/07:00pm 10.3 8.6 9.7 96 0.3 WNW 9 11 5 6 - - 0.2
23/06:30pm 10.6 8.2 10.1 97 0.3 NW 13 17 7 9 - - 0.2
23/06:00pm 10.7 9.0 9.9 95 0.4 NNW 9 13 5 7 - - 0.2
23/05:30pm 11.6 9.7 10.5 93 0.6 WNW 11 15 6 8 - - 0.2
23/05:00pm 12.1 9.4 10.2 88 1.0 WSW 15 20 8 11 - - 0.2
23/04:30pm 12.9 9.9 9.4 79 1.8 NW 15 24 8 13 - - 0.0
23/04:00pm 14.4 11.1 8.1 66 3.2 NNW 15 24 8 13 - - 0.0
23/03:30pm 14.6 10.6 8.3 66 3.2 NW 19 28 10 15 - - 0.0
23/03:00pm 15.3 11.8 8.8 65 3.3 WNW 17 24 9 13 - - 0.0
23/02:30pm 15.4 11.8 8.4 63 3.6 WNW 17 28 9 15 - - 0.0
23/02:00pm 14.2 11.7 8.4 68 2.9 N 11 15 6 8 - - 0.0
23/01:30pm 13.3 10.9 7.1 66 3.0 NNE 9 15 5 8 - - 0.0
23/01:00pm 12.8 10.2 5.9 63 3.3 N 9 15 5 8 - - 0.0
23/12:30pm 13.2 11.0 6.1 62 3.4 N 7 15 4 8 - - 0.0
23/12:00pm 11.9 10.0 5.1 63 3.1 NNW 4 11 2 6 - - 0.0
23/11:30am 11.1 8.0 3.4 59 3.4 N 9 15 5 8 - - 0.0
23/11:00am 10.2 6.7 3.3 62 3.0 N 11 15 6 8 - - 0.0
23/10:30am 9.1 5.8 2.4 63 2.8 NNE 9 13 5 7 - - 0.0
23/10:00am 8.5 4.8 2.1 64 2.7 NE 11 15 6 8 - - 0.0
23/09:30am 7.7 3.6 2.0 67 2.4 NE 13 17 7 9 - - 0.0
23/09:00am 6.9 2.3 1.8 70 2.1 NE 15 20 8 11 - - 0.0
23/08:30am 5.9 2.1 1.6 74 1.7 ENE 11 15 6 8 - - 0.0
23/08:00am 5.0 1.1 1.3 77 1.5 NE 11 13 6 7 - - 0.0
23/07:30am 4.8 0.5 1.3 78 1.4 NE 13 15 7 8 - - 0.0
23/07:00am 4.6 0.7 1.1 78 1.4 ENE 11 17 6 9 - - 0.0
23/06:30am 4.5 0.2 1.2 79 1.3 NE 13 17 7 9 - - 0.0
23/06:00am 5.1 0.9 1.4 77 1.5 NE 13 17 7 9 - - 0.0
23/05:30am 5.4 1.5 1.3 75 1.6 NE 11 15 6 8 - - 0.0
23/05:00am 5.1 0.4 1.2 76 1.5 NE 15 19 8 10 - - 0.0
23/04:30am 5.3 1.0 1.2 75 1.6 NE 13 17 7 9 - - 0.0
23/04:00am 5.0 0.3 1.1 76 1.5 NNE 15 28 8 15 - - 0.0
23/03:30am 6.0 1.7 1.3 72 1.9 NE 13 20 7 11 - - 0.0
23/03:00am 6.3 1.3 1.4 71 2.0 NE 17 26 9 14 - - 0.0
23/02:30am 6.5 1.2 1.6 71 2.0 NE 19 26 10 14 - - 0.0
23/02:00am 6.7 1.4 2.0 72 1.9 NE 19 26 10 14 - - 0.0
23/01:30am 6.9 1.6 2.0 71 2.0 NE 19 24 10 13 - - 0.0
23/01:00am 6.7 2.2 2.2 73 1.9 NE 15 22 8 12 - - 0.0
23/12:30am 5.8 1.8 2.8 81 1.2 ENE 13 19 7 10 - - 0.0
23/12:00am 5.6 2.0 2.8 82 1.2 ENE 11 15 6 8 - - 0.0
 
Date/Time
EST
Temp
°C
App
Temp
°C
Dew
Point
°C
Rel
Hum
%
Delta-T
°C
Wind Press
QNH
hPa
Press
MSL
hPa
Rain since
9am
mm
Dir  Spd
km/h
Gust
km/h
Spd
kts
Gust
kts
22/11:30pm 5.6 2.3 2.4 80 1.3 ENE 9 11 5 6 - - 0.0
22/11:00pm 5.8 2.1 2.4 79 1.4 ENE 11 13 6 7 - - 0.0
22/10:30pm 6.4 2.4 2.7 77 1.5 NE 13 15 7 8 - - 0.0
22/10:00pm 6.7 2.7 2.8 76 1.6 NE 13 17 7 9 - - 0.0
22/09:30pm 7.1 3.5 2.8 74 1.8 NE 11 22 6 12 - - 0.0
22/09:00pm 7.8 2.7 3.1 72 2.0 NE 19 24 10 13 - - 0.0
22/08:30pm 7.9 3.6 3.2 72 2.0 NE 15 22 8 12 - - 0.0
22/08:00pm 8.3 3.6 3.4 71 2.1 NE 17 24 9 13 - - 0.0
22/07:30pm 8.7 3.7 3.5 70 2.3 NE 19 26 10 14 - - 0.0
22/07:00pm 9.3 4.7 3.7 68 2.5 NE 17 24 9 13 - - 0.0
22/06:30pm 9.7 4.7 3.7 66 2.6 NE 19 26 10 14 - - 0.0
22/06:00pm 9.6 4.6 3.8 67 2.6 NE 19 24 10 13 - - 0.0
22/05:30pm 10.0 5.4 3.5 64 2.9 NE 17 22 9 12 - - 0.0
22/05:00pm 10.6 5.6 3.4 61 3.2 NE 19 26 10 14 - - 0.0
22/04:30pm 11.0 6.4 3.5 60 3.3 NE 17 22 9 12 - - 0.0
22/04:00pm 11.4 6.3 2.9 56 3.7 NNE 19 26 10 14 - - 0.0
22/03:30pm 11.7 6.7 3.5 57 3.7 NNE 19 26 10 14 - - 0.0
22/03:00pm 12.3 7.0 3.0 53 4.1 NNE 20 28 11 15 - - 0.0
22/02:30pm 12.2 7.1 2.9 53 4.1 N 19 26 10 14 - - 0.0
22/02:00pm 11.8 6.7 3.1 55 3.8 NNE 19 26 10 14 - - 0.0
22/01:30pm 11.6 6.9 3.1 56 3.7 NNE 17 24 9 13 - - 0.0
22/01:00pm 11.3 6.2 3.3 58 3.5 NNE 19 26 10 14 - - 0.0

Other Formats:

Comma delimited format used in spreadsheet applications
http://www.bom.gov.au/fwo/IDV60801/IDV60801.95836.axf

JavaScript Object Notation format (JSON) in row-major order
http://www.bom.gov.au/fwo/IDV60801/IDV60801.95836.json